createdAt,value
2023-01-12T00:03:06.555Z,11.20
2023-01-12T00:08:08.264Z,9.70
2023-01-12T00:13:16.994Z,6.30
2023-01-12T00:18:20.042Z,6.20
2023-01-12T00:23:22.059Z,9.70
2023-01-12T00:28:23.646Z,10.00
2023-01-12T00:33:25.280Z,10.60
2023-01-12T00:38:27.203Z,9.70
2023-01-12T00:43:47.398Z,6.20
2023-01-12T00:48:49.199Z,8.10
2023-01-12T00:53:50.835Z,13.30
2023-01-12T00:58:52.468Z,9.60
2023-01-12T01:03:54.666Z,9.20
2023-01-12T01:08:56.463Z,28.70
2023-01-12T01:13:59.150Z,12.70
2023-01-12T01:19:03.105Z,15.60
2023-01-12T01:24:09.127Z,7.50
2023-01-12T01:29:11.305Z,6.70
2023-01-12T01:34:13.437Z,10.60
2023-01-12T01:39:15.148Z,11.90
2023-01-12T01:44:31.923Z,8.00
2023-01-12T01:49:52.640Z,10.70
2023-01-12T01:54:59.281Z,10.10
2023-01-12T02:00:03.249Z,10.70
2023-01-12T02:05:07.554Z,7.50
2023-01-12T02:10:10.106Z,10.90
2023-01-12T02:15:30.695Z,12.80
2023-01-12T02:20:55.828Z,15.20
2023-01-12T02:26:27.037Z,12.80
2023-01-12T02:31:50.069Z,7.80
2023-01-12T02:37:10.538Z,12.00
2023-01-12T02:42:41.973Z,9.40
2023-01-12T02:47:49.013Z,9.80
2023-01-12T02:52:56.570Z,9.70
2023-01-12T02:58:00.076Z,10.50
2023-01-12T03:03:02.027Z,11.30
2023-01-12T03:08:05.366Z,13.30
2023-01-12T03:13:15.806Z,12.00
2023-01-12T03:18:39.378Z,12.20
2023-01-12T03:23:49.395Z,10.50
2023-01-12T03:28:56.433Z,12.20
2023-01-12T03:33:58.656Z,12.40
2023-01-12T03:39:11.813Z,17.00
2023-01-12T03:44:24.092Z,18.90
2023-01-12T03:49:33.117Z,16.60
2023-01-12T03:59:40.948Z,12.70
2023-01-12T04:04:42.626Z,14.40
2023-01-12T04:09:44.364Z,16.40
2023-01-12T04:14:48.155Z,13.80
2023-01-12T04:19:50.026Z,10.70
2023-01-12T04:24:51.845Z,19.20
2023-01-12T04:29:53.752Z,17.20
2023-01-12T04:34:55.429Z,21.20
2023-01-12T04:39:57.074Z,17.30
2023-01-12T04:44:58.859Z,16.40
2023-01-12T04:50:00.605Z,11.80
2023-01-12T04:55:03.132Z,17.30
2023-01-12T05:00:06.107Z,18.40
2023-01-12T05:10:23.628Z,12.40
2023-01-12T05:15:25.427Z,18.10
2023-01-12T05:20:27.094Z,26.30
2023-01-12T05:25:29.485Z,15.10
2023-01-12T05:30:32.059Z,10.70
2023-01-12T05:35:33.951Z,27.60
2023-01-12T05:40:35.818Z,19.70
2023-01-12T05:45:37.558Z,30.60
2023-01-12T05:50:39.962Z,27.20
2023-01-12T05:55:44.356Z,21.60
2023-01-12T06:00:46.705Z,27.80
2023-01-12T06:05:55.828Z,23.10
2023-01-12T06:16:09.139Z,36.10
2023-01-12T06:21:11.008Z,32.50
2023-01-12T06:26:12.989Z,34.60
2023-01-12T06:31:15.674Z,25.00
2023-01-12T06:36:17.456Z,18.30
2023-01-12T06:41:37.979Z,30.10
2023-01-12T06:46:39.874Z,31.10
2023-01-12T06:51:41.703Z,22.40
2023-01-12T06:56:43.339Z,32.40
2023-01-12T07:01:45.064Z,22.20
2023-01-12T07:06:48.287Z,25.60
2023-01-12T07:16:51.761Z,27.50
2023-01-12T07:21:53.430Z,26.60
2023-01-12T07:26:58.089Z,15.80
2023-01-12T07:31:59.780Z,23.40
2023-01-12T07:37:01.423Z,22.80
2023-01-12T07:42:21.897Z,20.90
2023-01-12T07:47:23.618Z,26.10
2023-01-12T07:52:25.448Z,23.90
2023-01-12T07:57:27.133Z,29.60
2023-01-12T08:02:28.956Z,22.80
2023-01-12T08:07:32.598Z,18.30
2023-01-12T08:12:35.849Z,25.00
2023-01-12T08:17:44.936Z,17.90
2023-01-12T08:22:51.654Z,18.00
2023-01-12T08:28:00.240Z,20.50
2023-01-12T08:33:02.749Z,15.90
2023-01-12T08:38:04.503Z,16.90
2023-01-12T08:43:06.225Z,23.10
2023-01-12T08:48:07.889Z,22.70
2023-01-12T08:53:10.540Z,20.90
2023-01-12T08:58:12.421Z,16.10
2023-01-12T09:03:14.491Z,19.50
2023-01-12T09:08:16.508Z,13.20
2023-01-12T09:13:18.148Z,11.70
2023-01-12T09:18:20.421Z,18.10
2023-01-12T09:23:22.267Z,13.60
2023-01-12T09:28:24.071Z,13.20
2023-01-12T09:33:26.020Z,12.40
2023-01-12T09:38:27.906Z,9.00
2023-01-12T09:43:48.176Z,9.10
2023-01-12T09:48:49.978Z,15.60
2023-01-12T09:53:51.809Z,13.50
2023-01-12T09:58:59.534Z,19.40
2023-01-12T10:04:02.283Z,13.30
2023-01-12T10:14:28.198Z,13.20
2023-01-12T10:20:03.013Z,10.20
2023-01-12T10:25:27.058Z,10.60
2023-01-12T10:30:28.856Z,10.30
2023-01-12T10:35:30.561Z,9.10
2023-01-12T10:40:34.957Z,13.10
2023-01-12T10:45:36.847Z,10.00
2023-01-12T10:50:38.667Z,12.10
2023-01-12T10:55:43.067Z,13.40
2023-01-12T11:00:52.229Z,10.80
2023-01-12T11:05:53.971Z,10.70
2023-01-12T11:10:55.683Z,8.40
2023-01-12T11:16:09.526Z,9.30
2023-01-12T11:21:15.825Z,8.00
2023-01-12T11:26:22.672Z,10.90
2023-01-12T11:31:42.386Z,9.30
2023-01-12T11:36:50.964Z,8.20
2023-01-12T11:42:17.632Z,8.40
2023-01-12T11:47:31.515Z,6.50
2023-01-12T11:52:34.535Z,10.10
2023-01-12T11:58:00.640Z,5.30
2023-01-12T12:03:12.238Z,9.20
2023-01-12T12:08:42.013Z,8.30
2023-01-12T12:14:31.198Z,7.80
2023-01-12T12:19:50.198Z,5.30
2023-01-12T12:25:50.666Z,6.90
2023-01-12T12:31:24.081Z,9.20
2023-01-12T12:36:34.869Z,10.50
2023-01-12T12:42:11.820Z,10.10
2023-01-12T12:47:41.024Z,7.70
2023-01-12T12:52:47.847Z,6.90
2023-01-12T12:58:01.391Z,6.20
2023-01-12T13:03:03.129Z,6.80
2023-01-12T13:08:05.261Z,5.60
2023-01-12T13:13:24.896Z,7.70
2023-01-12T13:18:42.151Z,6.60
2023-01-12T13:23:51.374Z,10.50
2023-01-12T13:29:29.055Z,4.40
2023-01-12T13:34:36.655Z,6.80
2023-01-12T13:39:45.953Z,6.80
2023-01-12T13:44:48.833Z,7.50
2023-01-12T13:54:55.557Z,7.90
2023-01-12T14:00:09.300Z,4.40
2023-01-12T14:05:29.531Z,5.60
2023-01-12T14:10:49.621Z,8.40
2023-01-12T14:16:19.555Z,8.40
2023-01-12T14:21:33.343Z,9.40
2023-01-12T14:26:35.456Z,7.80
2023-01-12T14:31:40.230Z,7.90
2023-01-12T14:36:44.318Z,11.30
2023-01-12T14:42:11.274Z,7.60
2023-01-12T14:47:24.900Z,9.30
2023-01-12T14:52:33.264Z,9.40
2023-01-12T14:57:36.435Z,9.80
2023-01-12T15:02:41.488Z,9.80
2023-01-12T15:07:55.755Z,10.00
2023-01-12T15:13:12.924Z,9.10
2023-01-12T15:18:34.016Z,6.90
2023-01-12T15:23:55.604Z,9.70
2023-01-12T15:28:57.338Z,7.40
2023-01-12T15:34:00.278Z,7.00
2023-01-12T15:39:01.964Z,9.60
2023-01-12T15:44:03.707Z,12.20
2023-01-12T15:49:05.868Z,10.80
2023-01-12T15:54:11.484Z,10.10
2023-01-12T15:59:13.479Z,8.90
2023-01-12T16:04:41.975Z,13.80
2023-01-12T16:09:47.779Z,10.50
2023-01-12T16:14:50.015Z,10.60
2023-01-12T16:19:51.772Z,9.90
2023-01-12T16:24:55.630Z,9.70
2023-01-12T16:29:57.646Z,10.60
2023-01-12T16:34:59.325Z,15.40
2023-01-12T16:40:01.197Z,17.80
2023-01-12T16:45:03.584Z,11.30
2023-01-12T16:50:06.004Z,14.50
2023-01-12T16:55:07.857Z,8.40
2023-01-12T17:00:10.688Z,12.10
2023-01-12T17:05:12.474Z,10.00
2023-01-12T17:10:17.594Z,9.70
2023-01-12T17:15:19.334Z,11.80
2023-01-12T17:20:21.461Z,10.90
2023-01-12T17:25:23.547Z,11.70
2023-01-12T17:30:25.805Z,7.90
2023-01-12T17:35:27.610Z,10.40
2023-01-12T17:40:29.414Z,10.70
2023-01-12T17:45:31.327Z,19.30
2023-01-12T17:50:33.151Z,16.30
2023-01-12T17:55:47.358Z,15.40
2023-01-12T18:00:49.801Z,17.90
2023-01-12T18:06:02.837Z,12.60
2023-01-12T18:11:08.595Z,13.70
2023-01-12T18:16:12.581Z,14.70
2023-01-12T18:21:18.558Z,12.60
2023-01-12T18:26:25.781Z,14.00
2023-01-12T18:31:31.890Z,10.00
2023-01-12T18:36:36.778Z,18.30
2023-01-12T18:41:57.155Z,14.60
2023-01-12T18:47:19.104Z,11.00
2023-01-12T18:52:40.055Z,13.50
2023-01-12T18:57:41.705Z,7.30
2023-01-12T19:02:44.651Z,12.90
2023-01-12T19:13:18.855Z,12.70
2023-01-12T19:18:20.647Z,6.70
2023-01-12T19:23:41.673Z,7.90
2023-01-12T19:28:43.392Z,4.90
2023-01-12T19:33:45.140Z,8.40
2023-01-12T19:38:50.971Z,10.70
2023-01-12T19:43:52.736Z,9.40
2023-01-12T19:48:54.430Z,6.60
2023-01-12T19:53:56.151Z,9.60
2023-01-12T19:58:58.046Z,8.00
2023-01-12T20:03:59.970Z,7.90
2023-01-12T20:09:03.149Z,10.20
2023-01-12T20:14:05.138Z,5.70
2023-01-12T20:19:07.217Z,10.80
2023-01-12T20:24:09.425Z,8.00
2023-01-12T20:29:11.685Z,9.40
2023-01-12T20:34:13.609Z,8.20
2023-01-12T20:39:16.146Z,5.80
2023-01-12T20:44:20.352Z,7.10
2023-01-12T20:49:22.209Z,6.10
2023-01-12T20:54:23.977Z,9.30
2023-01-12T20:59:25.792Z,7.30
2023-01-12T21:04:27.547Z,5.00
2023-01-12T21:09:29.621Z,13.00
2023-01-12T21:14:32.202Z,8.00
2023-01-12T21:19:34.409Z,8.40
2023-01-12T21:24:36.160Z,6.80
2023-01-12T21:29:37.923Z,5.90
2023-01-12T21:34:39.706Z,8.00
2023-01-12T21:39:41.489Z,8.20
2023-01-12T21:44:43.169Z,6.90
2023-01-12T21:49:44.934Z,7.50
2023-01-12T21:54:46.793Z,8.10
2023-01-12T21:59:48.471Z,7.80
2023-01-12T22:04:50.132Z,6.10
2023-01-12T22:09:52.019Z,5.20
2023-01-12T22:14:57.022Z,7.00
2023-01-12T22:19:59.117Z,7.40
2023-01-12T22:25:00.947Z,7.10
2023-01-12T22:30:05.204Z,9.40
2023-01-12T22:35:07.719Z,6.00
2023-01-12T22:40:11.055Z,5.80
2023-01-12T22:45:14.010Z,5.30
2023-01-12T22:50:15.951Z,2.50
2023-01-12T22:55:17.755Z,6.90
2023-01-12T23:00:21.095Z,4.90
2023-01-12T23:05:22.930Z,6.60
2023-01-12T23:10:25.517Z,6.00
2023-01-12T23:15:27.244Z,8.40
2023-01-12T23:20:29.140Z,6.80
2023-01-12T23:25:32.890Z,7.80
2023-01-12T23:30:34.721Z,4.30
2023-01-12T23:35:40.439Z,6.30
2023-01-12T23:40:42.395Z,4.80
2023-01-12T23:45:44.346Z,4.90
2023-01-12T23:50:46.148Z,4.50
2023-01-12T23:55:47.964Z,5.00
